Time;durP1;ratioP1;P1;durP2;ratioP2;P2;SDS_P1;SDS_P2;PMS_P1;PMS_P2;Temp;Humidity;BMP_temperature;BMP_pressure;BME280_temperature;BME280_humidity;BME280_pressure;Samples;Min_cycle;Max_cycle;Signal;HPM_P1;HPM_P2
2022/05/17 00:00:44;;;;;;;11.73;3.88;;;;;;;;;;5062884;28;20053;-77
2022/05/17 00:03:10;;;;;;;12.02;3.20;;;;;;;;;;5052123;28;20536;-77
2022/05/17 00:05:37;;;;;;;17.83;4.10;;;;;;;;;;5065538;28;20059;-77
2022/05/17 00:08:03;;;;;;;13.15;3.75;;;;;;;;;;5064451;28;20056;-77
2022/05/17 00:10:30;;;;;;;14.55;3.92;;;;;;;;;;5063218;28;20071;-77
2022/05/17 00:12:56;;;;;;;10.10;3.47;;;;;;;;;;5066024;28;20060;-77
2022/05/17 00:15:23;;;;;;;11.50;3.83;;;;;;;;;;5063948;28;20053;-77
2022/05/17 00:17:51;;;;;;;14.32;4.15;;;;;;;;;;5064873;28;20509;-76
2022/05/17 00:20:17;;;;;;;11.15;3.88;;;;;;;;;;5065383;28;20053;-79
2022/05/17 00:22:44;;;;;;;8.77;3.97;;;;;;;;;;5061513;28;20053;-77
2022/05/17 00:25:11;;;;;;;11.52;3.75;;;;;;;;;;5063860;28;20049;-76
2022/05/17 00:27:38;;;;;;;13.25;4.47;;;;;;;;;;5065349;28;20140;-77
2022/05/17 00:30:04;;;;;;;11.75;4.30;;;;;;;;;;5063697;28;20483;-77
2022/05/17 00:32:31;;;;;;;13.73;4.65;;;;;;;;;;5075211;28;20056;-77
2022/05/17 00:34:57;;;;;;;9.25;4.03;;;;;;;;;;5062283;28;20517;-76
2022/05/17 00:37:23;;;;;;;10.15;3.97;;;;;;;;;;5063253;28;20049;-76
2022/05/17 00:39:50;;;;;;;12.95;4.65;;;;;;;;;;5063748;28;20509;-76
2022/05/17 00:42:16;;;;;;;12.40;4.25;;;;;;;;;;5062525;28;20374;-75
2022/05/17 00:44:43;;;;;;;11.43;4.70;;;;;;;;;;5064444;28;20060;-76
2022/05/17 00:47:14;;;;;;;12.48;4.30;;;;;;;;;;5063229;28;20056;-76
2022/05/17 00:49:42;;;;;;;10.73;4.57;;;;;;;;;;5062652;28;20085;-76
2022/05/17 00:52:13;;;;;;;12.65;4.20;;;;;;;;;;5061349;28;20059;-75
2022/05/17 00:54:42;;;;;;;10.55;4.35;;;;;;;;;;5062955;28;20106;-77
2022/05/17 00:57:12;;;;;;;11.68;4.28;;;;;;;;;;5064498;28;20060;-76
2022/05/17 00:59:38;;;;;;;15.25;4.60;;;;;;;;;;5063018;28;20052;-77
2022/05/17 01:02:09;;;;;;;14.52;4.72;;;;;;;;;;5063841;28;20041;-76
2022/05/17 01:04:35;;;;;;;;;;;;;;;;;;5077490;28;20045;-77
2022/05/17 01:07:04;;;;;;;10.95;4.47;;;;;;;;;;5062626;28;46988;-77
2022/05/17 01:09:30;;;;;;;11.45;4.20;;;;;;;;;;5056617;28;20906;-77
2022/05/17 01:11:56;;;;;;;14.35;4.82;;;;;;;;;;5062162;28;20056;-77
2022/05/17 01:17:08;;;;;;;11.10;4.60;;;;;;;;;;5066203;28;20063;-77
2022/05/17 01:19:38;;;;;;;12.88;4.65;;;;;;;;;;5064067;28;20090;-77
2022/05/17 01:22:05;;;;;;;10.35;4.70;;;;;;;;;;5064167;28;20131;-77
2022/05/17 01:24:32;;;;;;;11.18;4.90;;;;;;;;;;5058513;28;20152;-77
2022/05/17 01:27:01;;;;;;;13.05;4.18;;;;;;;;;;5050646;28;20128;-76
2022/05/17 01:29:27;;;;;;;16.67;5.35;;;;;;;;;;5063585;28;20052;-77
2022/05/17 01:31:54;;;;;;;10.90;4.45;;;;;;;;;;5062508;28;20528;-77
2022/05/17 01:34:20;;;;;;;13.75;4.82;;;;;;;;;;5064113;28;20057;-77
2022/05/17 01:36:47;;;;;;;14.95;4.82;;;;;;;;;;5065472;28;20059;-77
2022/05/17 01:39:13;;;;;;;15.77;5.07;;;;;;;;;;5064711;28;20048;-77
2022/05/17 01:41:39;;;;;;;12.57;5.03;;;;;;;;;;5062634;28;20548;-77
2022/05/17 01:44:06;;;;;;;11.38;4.50;;;;;;;;;;5062322;28;20514;-77
2022/05/17 01:46:32;;;;;;;13.25;5.07;;;;;;;;;;5049197;28;20526;-76
2022/05/17 01:48:58;;;;;;;11.98;5.05;;;;;;;;;;5061433;28;20079;-76
2022/05/17 01:51:25;;;;;;;9.85;4.60;;;;;;;;;;5061105;28;20593;-76
2022/05/17 01:53:51;;;;;;;10.07;4.95;;;;;;;;;;5062419;28;20060;-77
2022/05/17 01:56:18;;;;;;;12.52;5.32;;;;;;;;;;5063781;28;20154;-76
2022/05/17 01:58:44;;;;;;;14.02;5.00;;;;;;;;;;5063511;28;20052;-77
2022/05/17 02:01:11;;;;;;;11.10;4.75;;;;;;;;;;5060421;28;20055;-76
2022/05/17 02:03:38;;;;;;;13.48;4.88;;;;;;;;;;5058933;28;20053;-77
2022/05/17 02:06:04;;;;;;;10.80;5.30;;;;;;;;;;5062728;28;20139;-77
2022/05/17 02:08:30;;;;;;;11.82;4.95;;;;;;;;;;5063577;28;20053;-77
2022/05/17 02:10:57;;;;;;;10.18;5.07;;;;;;;;;;5062157;28;20151;-78
2022/05/17 02:13:24;;;;;;;10.93;5.03;;;;;;;;;;5061913;28;20559;-77
2022/05/17 02:15:50;;;;;;;12.70;6.05;;;;;;;;;;5071331;28;20147;-78
2022/05/17 02:18:16;;;;;;;10.82;5.07;;;;;;;;;;5050921;28;20057;-78
2022/05/17 02:20:42;;;;;;;9.63;4.93;;;;;;;;;;5065856;28;20049;-78
2022/05/17 02:23:09;;;;;;;12.70;5.15;;;;;;;;;;5061143;28;20148;-78
2022/05/17 02:25:35;;;;;;;14.90;5.35;;;;;;;;;;5062241;28;20147;-78
2022/05/17 02:28:03;;;;;;;11.77;5.03;;;;;;;;;;5073523;28;20132;-77
2022/05/17 02:30:30;;;;;;;10.82;4.85;;;;;;;;;;5069686;28;20048;-78
2022/05/17 02:32:56;;;;;;;11.27;4.85;;;;;;;;;;5072360;28;20048;-78
2022/05/17 02:35:22;;;;;;;14.45;5.45;;;;;;;;;;5046155;28;20063;-78
2022/05/17 02:37:49;;;;;;;13.38;5.35;;;;;;;;;;5049490;28;20060;-78
2022/05/17 02:40:15;;;;;;;12.75;5.32;;;;;;;;;;5061706;28;20056;-77
2022/05/17 02:42:42;;;;;;;13.73;5.55;;;;;;;;;;5061337;28;20055;-77
2022/05/17 02:45:08;;;;;;;13.95;5.47;;;;;;;;;;5075704;28;20060;-77
2022/05/17 02:47:35;;;;;;;16.65;5.57;;;;;;;;;;5075362;28;20053;-77
2022/05/17 02:50:01;;;;;;;11.85;5.53;;;;;;;;;;5061738;28;20060;-78
2022/05/17 02:52:27;;;;;;;9.32;4.85;;;;;;;;;;5058870;28;20132;-77
2022/05/17 02:54:54;;;;;;;12.05;5.43;;;;;;;;;;5062560;28;20150;-77
2022/05/17 02:57:20;;;;;;;15.10;6.05;;;;;;;;;;5062059;28;20143;-77
2022/05/17 02:59:46;;;;;;;10.52;5.55;;;;;;;;;;5078780;28;20606;-78
2022/05/17 03:02:12;;;;;;;12.27;5.45;;;;;;;;;;5062332;28;20136;-78
2022/05/17 03:04:39;;;;;;;11.50;5.60;;;;;;;;;;5061578;28;20935;-77
2022/05/17 03:07:05;;;;;;;11.85;5.75;;;;;;;;;;5061216;28;20413;-78
2022/05/17 03:09:32;;;;;;;12.05;5.43;;;;;;;;;;5063158;28;20053;-78
2022/05/17 03:11:58;;;;;;;14.20;5.65;;;;;;;;;;5058538;28;20057;-77
2022/05/17 03:14:24;;;;;;;15.77;6.07;;;;;;;;;;5062064;28;20599;-78
2022/05/17 03:16:50;;;;;;;13.85;5.93;;;;;;;;;;5060573;28;20056;-77
2022/05/17 03:19:17;;;;;;;12.02;5.75;;;;;;;;;;5062585;28;20512;-78
2022/05/17 03:21:44;;;;;;;11.48;5.65;;;;;;;;;;5061097;28;20556;-78
2022/05/17 03:24:10;;;;;;;15.30;6.05;;;;;;;;;;5058754;28;20502;-78
2022/05/17 03:26:57;;;;;;;12.50;5.97;;;;;;;;;;5041994;28;20077;-78
2022/05/17 03:29:24;;;;;;;12.23;5.32;;;;;;;;;;5043487;28;20064;-78
2022/05/17 03:31:51;;;;;;;15.13;6.40;;;;;;;;;;5060800;28;20053;-78
2022/05/17 03:34:17;;;;;;;13.80;5.65;;;;;;;;;;5063782;28;20065;-77
2022/05/17 03:36:43;;;;;;;11.75;5.82;;;;;;;;;;5065222;28;20065;-77
2022/05/17 03:39:10;;;;;;;12.60;5.93;;;;;;;;;;5065106;28;20053;-78
2022/05/17 03:41:36;;;;;;;13.20;5.72;;;;;;;;;;5065914;28;20372;-77
2022/05/17 03:44:03;;;;;;;10.25;6.18;;;;;;;;;;5063044;28;20053;-78
2022/05/17 03:46:30;;;;;;;13.30;6.30;;;;;;;;;;5065721;28;20055;-77
2022/05/17 03:48:56;;;;;;;14.60;6.38;;;;;;;;;;5066195;28;20244;-76
2022/05/17 03:51:22;;;;;;;12.52;6.10;;;;;;;;;;5064291;28;20059;-76
2022/05/17 03:53:50;;;;;;;9.85;5.80;;;;;;;;;;5063575;28;20053;-77
2022/05/17 03:56:19;;;;;;;13.25;5.90;;;;;;;;;;5066403;28;20057;-77
2022/05/17 03:58:45;;;;;;;14.23;6.68;;;;;;;;;;5062840;28;20049;-77
2022/05/17 04:01:12;;;;;;;14.73;6.03;;;;;;;;;;5063967;28;20059;-77
2022/05/17 04:03:39;;;;;;;13.30;5.68;;;;;;;;;;5064432;28;20061;-77
2022/05/17 04:06:06;;;;;;;11.43;6.00;;;;;;;;;;5066375;28;20056;-78
2022/05/17 04:08:32;;;;;;;13.57;5.63;;;;;;;;;;5064061;28;20057;-77
2022/05/17 04:10:59;;;;;;;15.57;6.30;;;;;;;;;;5065166;28;20501;-77
2022/05/17 04:13:29;;;;;;;11.75;5.80;;;;;;;;;;5063691;28;20507;-76
2022/05/17 04:15:56;;;;;;;11.85;6.28;;;;;;;;;;5061888;28;20132;-77
2022/05/17 04:18:23;;;;;;;13.45;6.57;;;;;;;;;;5065668;28;20068;-76
2022/05/17 04:20:49;;;;;;;12.57;6.38;;;;;;;;;;5065384;28;20053;-77
2022/05/17 04:23:15;;;;;;;13.70;6.35;;;;;;;;;;5063207;28;20052;-77
2022/05/17 04:25:41;;;;;;;14.82;6.68;;;;;;;;;;5065305;28;20057;-76
2022/05/17 04:28:08;;;;;;;13.20;6.35;;;;;;;;;;5064452;28;20068;-77
2022/05/17 04:30:39;;;;;;;14.55;6.40;;;;;;;;;;5064928;28;20053;-77
2022/05/17 04:33:07;;;;;;;16.52;6.78;;;;;;;;;;5057792;28;20053;-77
2022/05/17 04:35:33;;;;;;;13.13;7.53;;;;;;;;;;5066668;28;20053;-77
2022/05/17 04:38:00;;;;;;;13.90;5.78;;;;;;;;;;5063294;28;20057;-77
2022/05/17 04:40:27;;;;;;;15.88;7.35;;;;;;;;;;5063220;28;20095;-77
2022/05/17 04:42:56;;;;;;;12.40;7.25;;;;;;;;;;5065058;28;20056;-77
2022/05/17 04:45:23;;;;;;;15.15;7.07;;;;;;;;;;5063606;28;20052;-78
2022/05/17 04:47:50;;;;;;;13.98;6.43;;;;;;;;;;5060178;28;20055;-78
2022/05/17 04:50:17;;;;;;;14.20;7.25;;;;;;;;;;5062210;28;20053;-78
2022/05/17 04:52:43;;;;;;;13.38;7.13;;;;;;;;;;5062281;28;20079;-78
2022/05/17 04:55:10;;;;;;;11.15;6.40;;;;;;;;;;5064308;28;20131;-77
2022/05/17 04:57:37;;;;;;;16.48;6.90;;;;;;;;;;5066143;28;20267;-78
2022/05/17 05:00:06;;;;;;;12.55;6.22;;;;;;;;;;5063520;28;20054;-78
2022/05/17 05:02:32;;;;;;;11.23;6.53;;;;;;;;;;5064929;28;20053;-78
2022/05/17 05:04:58;;;;;;;11.57;6.60;;;;;;;;;;5062092;28;20059;-77
2022/05/17 05:07:25;;;;;;;14.40;6.53;;;;;;;;;;5056912;28;20159;-77
2022/05/17 05:09:51;;;;;;;12.93;6.63;;;;;;;;;;5063789;28;20049;-77
2022/05/17 05:12:17;;;;;;;13.93;6.60;;;;;;;;;;5061835;28;20057;-77
2022/05/17 05:14:44;;;;;;;14.95;5.93;;;;;;;;;;5063742;28;20061;-78
2022/05/17 05:17:10;;;;;;;13.18;6.82;;;;;;;;;;5064117;28;20144;-77
2022/05/17 05:19:37;;;;;;;14.68;7.28;;;;;;;;;;5064714;28;20140;-77
2022/05/17 05:22:04;;;;;;;16.30;6.22;;;;;;;;;;5062914;28;20144;-77
2022/05/17 05:24:31;;;;;;;13.93;6.32;;;;;;;;;;5061677;28;20052;-78
2022/05/17 05:26:57;;;;;;;14.90;6.15;;;;;;;;;;5076327;28;20063;-77
2022/05/17 05:29:24;;;;;;;10.68;5.57;;;;;;;;;;5062101;28;20147;-78
2022/05/17 05:31:50;;;;;;;15.00;6.43;;;;;;;;;;5069185;28;20516;-78
2022/05/17 05:34:17;;;;;;;10.45;6.00;;;;;;;;;;5075534;28;20092;-78
2022/05/17 05:36:44;;;;;;;12.18;5.95;;;;;;;;;;5064074;28;20091;-78
2022/05/17 05:39:10;;;;;;;11.18;5.35;;;;;;;;;;5064006;28;20049;-78
2022/05/17 05:41:37;;;;;;;13.30;5.70;;;;;;;;;;5060847;28;20063;-78
2022/05/17 05:44:04;;;;;;;12.32;5.43;;;;;;;;;;5053152;28;20065;-78
2022/05/17 05:46:30;;;;;;;15.27;6.00;;;;;;;;;;5064715;28;20497;-78
2022/05/17 05:48:56;;;;;;;14.05;5.38;;;;;;;;;;5063467;28;20340;-77
2022/05/17 05:51:24;;;;;;;10.35;5.50;;;;;;;;;;5060664;28;20053;-77
2022/05/17 05:53:50;;;;;;;11.63;4.82;;;;;;;;;;5060339;28;20053;-78
2022/05/17 05:56:17;;;;;;;12.88;4.82;;;;;;;;;;5060198;28;20096;-78
2022/05/17 05:58:43;;;;;;;10.32;5.22;;;;;;;;;;5051079;28;20085;-77
2022/05/17 06:01:09;;;;;;;10.80;5.20;;;;;;;;;;5053752;28;20136;-78
2022/05/17 06:03:36;;;;;;;11.30;4.72;;;;;;;;;;5067252;28;20152;-78
2022/05/17 06:06:03;;;;;;;8.05;4.68;;;;;;;;;;5061738;28;20523;-78
2022/05/17 06:08:29;;;;;;;10.60;4.85;;;;;;;;;;5063314;28;20056;-78
2022/05/17 06:10:56;;;;;;;10.38;5.28;;;;;;;;;;5063559;28;20053;-78
2022/05/17 06:13:22;;;;;;;10.85;4.60;;;;;;;;;;5060697;28;20063;-78
2022/05/17 06:15:51;;;;;;;11.63;5.25;;;;;;;;;;5068420;28;20049;-78
2022/05/17 06:18:17;;;;;;;16.13;4.90;;;;;;;;;;5061083;28;20053;-77
2022/05/17 06:20:48;;;;;;;9.25;4.78;;;;;;;;;;5062448;28;20055;-78
2022/05/17 06:23:15;;;;;;;10.73;4.82;;;;;;;;;;5063300;28;20064;-78
2022/05/17 06:25:41;;;;;;;11.75;4.53;;;;;;;;;;5063521;28;20145;-78
2022/05/17 06:28:08;;;;;;;9.70;4.00;;;;;;;;;;5062112;28;20079;-76
2022/05/17 06:30:34;;;;;;;9.38;4.00;;;;;;;;;;5061332;28;20054;-76
2022/05/17 06:33:01;;;;;;;9.23;4.03;;;;;;;;;;5057462;28;20057;-76
2022/05/17 06:35:27;;;;;;;12.35;3.88;;;;;;;;;;5061727;28;20103;-76
2022/05/17 06:37:53;;;;;;;12.27;3.95;;;;;;;;;;5061312;28;20061;-76
2022/05/17 06:40:20;;;;;;;11.50;3.80;;;;;;;;;;5063542;28;20478;-76
2022/05/17 06:42:47;;;;;;;9.82;3.40;;;;;;;;;;5062656;28;20059;-76
2022/05/17 06:45:13;;;;;;;9.98;3.40;;;;;;;;;;5052549;28;20049;-75
2022/05/17 06:47:40;;;;;;;9.88;3.17;;;;;;;;;;5054612;28;20057;-75
2022/05/17 06:50:07;;;;;;;8.65;3.15;;;;;;;;;;5060183;28;20107;-76
2022/05/17 06:52:33;;;;;;;10.52;3.53;;;;;;;;;;5061760;28;20488;-77
2022/05/17 06:55:00;;;;;;;7.32;2.95;;;;;;;;;;5060737;28;20063;-77
2022/05/17 06:57:26;;;;;;;10.32;3.70;;;;;;;;;;5083229;28;20058;-77
2022/05/17 06:59:52;;;;;;;7.18;3.08;;;;;;;;;;5063961;28;20056;-76
2022/05/17 07:02:18;;;;;;;7.82;2.88;;;;;;;;;;5061378;28;20053;-76
2022/05/17 07:04:45;;;;;;;8.20;2.60;;;;;;;;;;5059825;28;20053;-75
2022/05/17 07:07:11;;;;;;;12.98;3.38;;;;;;;;;;5053899;28;20054;-75
2022/05/17 07:09:38;;;;;;;7.03;2.90;;;;;;;;;;5063107;28;20649;-76
2022/05/17 07:14:49;;;;;;;8.65;2.92;;;;;;;;;;5064293;28;20561;-75
2022/05/17 07:17:19;;;;;;;9.20;2.90;;;;;;;;;;5066361;28;20057;-75
2022/05/17 07:19:46;;;;;;;6.47;2.75;;;;;;;;;;5066690;28;20053;-74
2022/05/17 07:22:12;;;;;;;15.38;3.05;;;;;;;;;;5066871;28;20107;-75
2022/05/17 07:24:41;;;;;;;8.80;2.60;;;;;;;;;;5057361;28;20102;-75
2022/05/17 07:27:09;;;;;;;8.75;3.10;;;;;;;;;;5064471;28;20140;-75
2022/05/17 07:29:45;;;;;;;10.27;2.92;;;;;;;;;;5065647;28;20063;-76
2022/05/17 07:32:11;;;;;;;6.13;3.00;;;;;;;;;;5063939;28;20241;-75
2022/05/17 07:34:38;;;;;;;9.38;2.95;;;;;;;;;;5064016;28;20057;-75
2022/05/17 07:37:04;;;;;;;12.18;2.80;;;;;;;;;;5065487;28;20057;-75
2022/05/17 07:39:30;;;;;;;9.13;2.92;;;;;;;;;;5062983;28;20466;-75
2022/05/17 07:42:02;;;;;;;6.95;2.97;;;;;;;;;;5063678;28;20119;-75
2022/05/17 07:44:29;;;;;;;10.30;3.88;;;;;;;;;;5065551;28;20049;-75
2022/05/17 07:46:56;;;;;;;10.98;3.28;;;;;;;;;;5059756;28;20059;-74
2022/05/17 07:49:23;;;;;;;10.73;3.30;;;;;;;;;;5062771;28;20053;-75
2022/05/17 07:51:49;;;;;;;9.15;3.13;;;;;;;;;;5050174;28;20136;-75
2022/05/17 07:54:15;;;;;;;6.78;3.10;;;;;;;;;;5062969;28;20057;-75
2022/05/17 07:56:42;;;;;;;10.90;3.05;;;;;;;;;;5059472;28;20081;-75
2022/05/17 07:59:08;;;;;;;10.45;3.50;;;;;;;;;;5063539;28;20059;-76
2022/05/17 08:01:34;;;;;;;12.00;3.20;;;;;;;;;;5065038;28;20052;-76
2022/05/17 08:04:01;;;;;;;12.18;2.95;;;;;;;;;;5063827;28;20051;-76
2022/05/17 08:06:27;;;;;;;11.70;3.78;;;;;;;;;;5062800;28;20616;-76
2022/05/17 08:08:53;;;;;;;11.60;3.78;;;;;;;;;;5065685;28;21105;-76
2022/05/17 08:11:20;;;;;;;11.32;3.80;;;;;;;;;;5051633;28;20132;-76
2022/05/17 08:13:46;;;;;;;8.20;3.25;;;;;;;;;;5058949;28;20152;-76
2022/05/17 08:16:32;;;;;;;8.05;3.83;;;;;;;;;;5045420;28;20131;-76
2022/05/17 08:18:59;;;;;;;12.68;3.88;;;;;;;;;;5044815;28;20059;-76
2022/05/17 08:21:25;;;;;;;9.32;3.53;;;;;;;;;;5063451;28;20055;-76
2022/05/17 08:23:51;;;;;;;10.63;3.90;;;;;;;;;;5073199;28;20049;-76
2022/05/17 08:29:03;;;;;;;8.15;3.60;;;;;;;;;;5064443;28;20059;-76
2022/05/17 08:31:29;;;;;;;13.13;3.70;;;;;;;;;;5063977;28;20531;-76
2022/05/17 08:33:56;;;;;;;14.45;4.57;;;;;;;;;;5084242;28;20049;-76
2022/05/17 08:36:22;;;;;;;13.65;4.75;;;;;;;;;;5086774;28;20058;-76
2022/05/17 08:38:50;;;;;;;11.40;4.35;;;;;;;;;;5086394;28;20059;-77
2022/05/17 08:41:41;;;;;;;10.73;4.60;;;;;;;;;;5045700;28;20049;-77
2022/05/17 08:44:08;;;;;;;12.90;4.20;;;;;;;;;;5045123;28;20538;-76
2022/05/17 08:46:37;;;;;;;10.40;3.83;;;;;;;;;;5053757;28;20053;-76
2022/05/17 08:49:19;;;;;;;18.65;4.60;;;;;;;;;;5057584;28;20087;-76
2022/05/17 08:51:54;;;;;;;10.30;4.43;;;;;;;;;;5064218;28;20053;-77
2022/05/17 08:54:24;;;;;;;12.90;4.22;;;;;;;;;;5064583;28;20053;-76
2022/05/17 08:56:55;;;;;;;12.75;4.60;;;;;;;;;;5065405;28;20084;-76
2022/05/17 08:59:23;;;;;;;12.55;4.40;;;;;;;;;;5064556;28;20345;-76
2022/05/17 09:02:10;;;;;;;10.70;4.20;;;;;;;;;;5065761;28;20053;-77
2022/05/17 09:04:37;;;;;;;14.27;4.50;;;;;;;;;;5060218;28;20526;-77
2022/05/17 09:07:14;;;;;;;10.93;4.43;;;;;;;;;;5059658;28;20059;-77
2022/05/17 09:09:58;;;;;;;9.73;4.05;;;;;;;;;;5049963;28;20053;-77
2022/05/17 09:12:24;;;;;;;12.15;4.82;;;;;;;;;;5044408;28;20053;-78
2022/05/17 09:14:52;;;;;;;15.48;4.60;;;;;;;;;;5044107;28;20437;-78
2022/05/17 09:17:21;;;;;;;12.38;4.38;;;;;;;;;;5044398;28;20057;-77
2022/05/17 09:19:49;;;;;;;9.20;4.22;;;;;;;;;;5044983;28;20120;-78
2022/05/17 09:22:16;;;;;;;15.02;4.88;;;;;;;;;;5063699;28;20144;-77
2022/05/17 09:24:44;;;;;;;12.05;4.22;;;;;;;;;;5064341;28;21173;-76
2022/05/17 09:27:12;;;;;;;9.90;4.80;;;;;;;;;;5063554;28;20538;-77
2022/05/17 09:29:45;;;;;;;10.48;4.63;;;;;;;;;;5061702;28;20509;-76
2022/05/17 09:32:22;;;;;;;11.75;4.43;;;;;;;;;;5061072;28;20139;-76
2022/05/17 09:34:54;;;;;;;11.98;4.30;;;;;;;;;;5060443;28;20057;-76
2022/05/17 09:37:21;;;;;;;11.10;4.57;;;;;;;;;;5056053;28;20554;-76
2022/05/17 09:39:52;;;;;;;9.68;4.53;;;;;;;;;;5063468;28;20049;-76
2022/05/17 09:42:21;;;;;;;11.45;4.13;;;;;;;;;;5055794;28;20501;-76
2022/05/17 09:44:49;;;;;;;11.25;4.82;;;;;;;;;;5062143;28;20057;-76
2022/05/17 09:47:27;;;;;;;11.30;4.03;;;;;;;;;;5060870;28;20552;-76
2022/05/17 09:52:45;;;;;;;11.25;4.05;;;;;;;;;;5064348;28;20055;-78
2022/05/17 09:55:21;;;;;;;8.57;4.10;;;;;;;;;;5057486;28;20063;-75
2022/05/17 09:57:56;;;;;;;10.65;4.40;;;;;;;;;;5056831;28;20056;-75
2022/05/17 10:00:34;;;;;;;10.95;4.25;;;;;;;;;;5067092;28;20055;-75
2022/05/17 10:03:00;;;;;;;9.57;3.78;;;;;;;;;;5060782;28;20092;-75
2022/05/17 10:05:27;;;;;;;14.15;4.15;;;;;;;;;;5062949;28;20059;-75
2022/05/17 10:07:58;;;;;;;7.82;3.47;;;;;;;;;;5063980;28;20131;-75
2022/05/17 10:10:26;;;;;;;9.80;4.10;;;;;;;;;;5063360;28;20049;-75
2022/05/17 10:12:56;;;;;;;11.38;3.97;;;;;;;;;;5061777;28;20057;-75
2022/05/17 10:15:24;;;;;;;8.07;3.88;;;;;;;;;;5063504;28;20048;-75
2022/05/17 10:17:51;;;;;;;9.85;4.10;;;;;;;;;;5063354;28;20136;-75
2022/05/17 10:20:23;;;;;;;10.82;4.10;;;;;;;;;;5062346;28;20053;-75
2022/05/17 10:23:08;;;;;;;10.57;4.35;;;;;;;;;;5062809;28;20053;-75
2022/05/17 10:25:34;;;;;;;10.63;3.92;;;;;;;;;;5062860;28;20915;-76
2022/05/17 10:28:26;;;;;;;10.18;3.95;;;;;;;;;;5059513;28;20061;-75
2022/05/17 10:30:54;;;;;;;9.43;4.30;;;;;;;;;;5072323;28;20446;-76
2022/05/17 10:33:26;;;;;;;11.30;4.60;;;;;;;;;;5059252;28;20513;-76
2022/05/17 10:35:55;;;;;;;9.02;4.28;;;;;;;;;;5060333;28;20088;-76
2022/05/17 10:38:22;;;;;;;13.10;5.10;;;;;;;;;;5063861;28;20342;-76
2022/05/17 10:40:49;;;;;;;10.07;4.47;;;;;;;;;;5058334;28;20057;-75
2022/05/17 10:43:17;;;;;;;9.88;4.75;;;;;;;;;;5055549;28;20061;-75
2022/05/17 10:45:55;;;;;;;12.02;4.47;;;;;;;;;;5058829;28;20055;-75
2022/05/17 10:48:32;;;;;;;14.32;4.38;;;;;;;;;;5056612;28;20053;-75
2022/05/17 10:51:06;;;;;;;9.90;3.88;;;;;;;;;;5058166;28;20139;-75
2022/05/17 10:53:56;;;;;;;9.07;4.07;;;;;;;;;;5061006;28;20064;-76
2022/05/17 10:56:35;;;;;;;9.88;3.90;;;;;;;;;;5060191;28;20605;-75
2022/05/17 10:59:19;;;;;;;10.27;4.35;;;;;;;;;;5052367;28;20593;-75
2022/05/17 11:02:00;;;;;;;9.57;3.83;;;;;;;;;;5061260;28;20775;-76
2022/05/17 11:04:34;;;;;;;9.45;3.85;;;;;;;;;;5054888;28;20172;-75
2022/05/17 11:07:21;;;;;;;8.27;3.63;;;;;;;;;;5063093;28;20049;-75
2022/05/17 11:09:56;;;;;;;10.18;4.00;;;;;;;;;;5061847;28;20059;-76
2022/05/17 11:12:26;;;;;;;9.52;4.15;;;;;;;;;;5061147;28;20059;-74
2022/05/17 11:14:53;;;;;;;;;;;;;;;;;;5061917;28;20075;-76
2022/05/17 11:17:38;;;;;;;9.35;4.15;;;;;;;;;;5067525;28;35557;-76
2022/05/17 11:20:23;;;;;;;13.20;4.22;;;;;;;;;;5058409;28;20635;-76
2022/05/17 11:23:08;;;;;;;10.30;4.22;;;;;;;;;;5051978;28;20045;-76
2022/05/17 11:25:47;;;;;;;12.95;4.05;;;;;;;;;;5061565;28;20505;-76
2022/05/17 11:28:14;;;;;;;9.88;4.00;;;;;;;;;;5065859;28;20067;-76
2022/05/17 11:30:49;;;;;;;10.15;3.72;;;;;;;;;;5084025;28;20144;-76
2022/05/17 11:33:36;;;;;;;12.23;4.03;;;;;;;;;;5062347;28;20131;-76
2022/05/17 11:36:23;;;;;;;7.05;3.42;;;;;;;;;;5054037;28;20136;-76
2022/05/17 11:38:50;;;;;;;10.98;3.65;;;;;;;;;;5054462;28;20433;-76
2022/05/17 11:41:43;;;;;;;9.98;3.42;;;;;;;;;;5057139;28;20058;-76
2022/05/17 11:44:10;;;;;;;9.73;3.88;;;;;;;;;;5053917;28;20126;-76
2022/05/17 11:46:41;;;;;;;16.05;4.40;;;;;;;;;;5057099;28;20871;-76
2022/05/17 11:49:07;;;;;;;11.60;4.32;;;;;;;;;;5054464;28;20057;-75
2022/05/17 11:51:36;;;;;;;12.55;5.38;;;;;;;;;;5060191;28;20049;-75
2022/05/17 11:54:06;;;;;;;11.30;5.03;;;;;;;;;;5067497;28;20151;-76
2022/05/17 11:56:34;;;;;;;11.07;4.60;;;;;;;;;;5065661;28;20059;-75
2022/05/17 11:59:12;;;;;;;11.23;4.88;;;;;;;;;;5062837;28;20049;-75
2022/05/17 12:01:38;;;;;;;8.70;4.65;;;;;;;;;;5064003;28;20152;-76
2022/05/17 12:04:06;;;;;;;13.47;5.40;;;;;;;;;;5065216;28;20514;-76
2022/05/17 12:06:33;;;;;;;10.20;4.40;;;;;;;;;;5063309;28;20517;-75
2022/05/17 12:08:59;;;;;;;9.15;4.82;;;;;;;;;;5063952;28;20477;-75
2022/05/17 12:11:31;;;;;;;10.82;4.93;;;;;;;;;;5064937;28;20582;-75
2022/05/17 12:14:08;;;;;;;12.35;5.78;;;;;;;;;;5045635;28;20433;-75
2022/05/17 12:16:36;;;;;;;10.98;5.40;;;;;;;;;;5058042;28;20053;-76
2022/05/17 12:19:05;;;;;;;;;;;;;;;;;;5062504;28;20057;-75
2022/05/17 12:21:48;;;;;;;14.82;6.28;;;;;;;;;;5064628;28;41414;-75
2022/05/17 12:24:24;;;;;;;14.35;5.65;;;;;;;;;;5057779;28;20067;-75
2022/05/17 12:26:53;;;;;;;12.85;5.78;;;;;;;;;;5065588;28;20059;-75
2022/05/17 12:32:10;;;;;;;9.52;4.85;;;;;;;;;;5063370;28;20060;-76
2022/05/17 12:34:40;;;;;;;11.68;5.28;;;;;;;;;;5063057;28;20060;-76
2022/05/17 12:37:14;;;;;;;13.25;4.97;;;;;;;;;;5062409;28;20053;-76
2022/05/17 12:45:14;;;;;;;12.15;5.10;;;;;;;;;;5064685;28;20702;-76
2022/05/17 12:47:42;;;;;;;10.83;5.30;;;;;;;;;;5060001;28;20049;-75
2022/05/17 12:50:13;;;;;;;11.98;5.20;;;;;;;;;;5063783;28;20767;-75
2022/05/17 12:52:41;;;;;;;10.43;5.38;;;;;;;;;;5064106;28;20140;-75
2022/05/17 12:55:16;;;;;;;10.38;4.95;;;;;;;;;;5063362;28;20132;-75
2022/05/17 12:57:43;;;;;;;10.65;4.82;;;;;;;;;;5063595;28;20066;-75
2022/05/17 13:00:24;;;;;;;11.85;5.00;;;;;;;;;;5062517;28;20055;-75
2022/05/17 13:02:54;;;;;;;11.85;4.90;;;;;;;;;;5061290;28;20937;-76
2022/05/17 13:05:35;;;;;;;10.73;5.10;;;;;;;;;;5064048;28;20092;-75
2022/05/17 13:08:05;;;;;;;11.05;5.07;;;;;;;;;;5064036;28;20059;-76
2022/05/17 13:10:32;;;;;;;10.10;5.15;;;;;;;;;;5064029;28;20075;-76
2022/05/17 13:12:59;;;;;;;11.35;5.63;;;;;;;;;;5063140;28;20055;-76
2022/05/17 13:15:27;;;;;;;11.02;4.60;;;;;;;;;;5063388;28;20724;-75
2022/05/17 13:17:55;;;;;;;10.23;5.00;;;;;;;;;;5064504;28;20059;-76
2022/05/17 13:20:25;;;;;;;9.90;4.80;;;;;;;;;;5054336;28;20565;-76
2022/05/17 13:22:57;;;;;;;11.40;4.60;;;;;;;;;;5058783;28;20048;-75
2022/05/17 13:25:36;;;;;;;10.95;4.38;;;;;;;;;;5056687;28;20140;-75
2022/05/17 13:28:03;;;;;;;9.90;4.88;;;;;;;;;;5063785;28;20513;-76
2022/05/17 13:30:36;;;;;;;10.02;4.72;;;;;;;;;;5063345;28;20490;-76
2022/05/17 13:33:04;;;;;;;11.18;5.22;;;;;;;;;;5063272;28;20425;-76
2022/05/17 13:35:32;;;;;;;10.00;4.53;;;;;;;;;;5060322;28;20147;-76
2022/05/17 13:38:01;;;;;;;11.50;5.00;;;;;;;;;;5058059;28;21011;-75
2022/05/17 13:40:55;;;;;;;8.88;4.90;;;;;;;;;;5058581;28;20056;-76
2022/05/17 13:43:39;;;;;;;10.23;4.82;;;;;;;;;;5055978;28;20143;-75
2022/05/17 13:46:07;;;;;;;11.00;4.57;;;;;;;;;;5059368;28;20111;-75
2022/05/17 13:48:34;;;;;;;14.05;5.20;;;;;;;;;;5060496;28;20188;-76
2022/05/17 13:51:02;;;;;;;13.52;5.22;;;;;;;;;;5058635;28;20524;-75
2022/05/17 13:53:33;;;;;;;11.25;4.80;;;;;;;;;;5046015;28;20063;-75
2022/05/17 13:56:00;;;;;;;9.77;4.57;;;;;;;;;;5059829;28;20107;-75
2022/05/17 13:58:28;;;;;;;9.50;4.35;;;;;;;;;;5060282;28;20486;-75
2022/05/17 14:01:15;;;;;;;12.98;4.63;;;;;;;;;;5060362;28;20049;-75
2022/05/17 14:03:42;;;;;;;10.63;3.90;;;;;;;;;;5056038;28;20575;-76
2022/05/17 14:06:10;;;;;;;11.45;4.35;;;;;;;;;;5063396;28;20049;-75
2022/05/17 14:14:12;;;;;;;7.68;3.13;;;;;;;;;;5043366;28;20136;-75
2022/05/17 14:16:40;;;;;;;8.75;3.20;;;;;;;;;;5061377;28;20045;-75
2022/05/17 14:19:09;;;;;;;10.00;3.95;;;;;;;;;;5063177;28;20080;-75
2022/05/17 14:21:35;;;;;;;10.35;4.22;;;;;;;;;;5063304;28;20049;-76
2022/05/17 14:24:02;;;;;;;8.70;4.53;;;;;;;;;;5056127;28;20432;-75
2022/05/17 14:26:28;;;;;;;9.57;4.00;;;;;;;;;;5054928;28;20219;-76
2022/05/17 14:28:54;;;;;;;7.30;3.60;;;;;;;;;;5061494;28;20049;-76
2022/05/17 14:31:22;;;;;;;10.35;3.95;;;;;;;;;;5059824;28;20056;-76
2022/05/17 14:33:50;;;;;;;8.95;3.65;;;;;;;;;;5061078;28;20053;-77
2022/05/17 14:36:18;;;;;;;10.52;4.38;;;;;;;;;;5061828;28;20107;-75
2022/05/17 14:38:45;;;;;;;9.35;4.15;;;;;;;;;;5059072;28;20135;-75
2022/05/17 14:41:31;;;;;;;8.77;3.45;;;;;;;;;;5061090;28;20053;-76
2022/05/17 14:43:58;;;;;;;10.77;3.50;;;;;;;;;;5059913;28;20484;-76
2022/05/17 14:46:24;;;;;;;7.90;3.50;;;;;;;;;;5043177;28;20119;-74
2022/05/17 14:48:51;;;;;;;8.73;3.50;;;;;;;;;;5043215;28;20050;-74
2022/05/17 14:51:22;;;;;;;8.45;3.17;;;;;;;;;;5059349;28;20060;-75
2022/05/17 14:53:51;;;;;;;11.13;3.25;;;;;;;;;;5057856;28;20589;-76
2022/05/17 14:56:24;;;;;;;10.18;3.60;;;;;;;;;;5057478;28;20049;-75
2022/05/17 14:58:51;;;;;;;10.80;3.70;;;;;;;;;;5062369;28;20241;-75
2022/05/17 15:01:18;;;;;;;9.45;3.40;;;;;;;;;;5062264;28;20063;-76
2022/05/17 15:03:47;;;;;;;8.88;3.70;;;;;;;;;;5057639;28;20052;-76
2022/05/17 15:06:14;;;;;;;7.60;3.50;;;;;;;;;;5063607;28;20192;-75
2022/05/17 15:08:42;;;;;;;13.05;4.25;;;;;;;;;;5059750;28;20048;-76